Oakley, UT

4:10 PM MST on December 20, 2014 (GMT -0700)
RAWS NORWAY UT US | Change Station
CLOSE
Current Station
Personal Weather Station
Location: Kamas, UT
Elevation: 8279 ft
Nearby Weather Stations

Elev 8279 ft 40.65 °N, 111.05 °W | Updated 1 hour ago

Overcast
Overcast
28 °F
Feels Like 28 °F
N
2
Wind Variable Wind from NW
Gusts 6.0 mph

Today
High -- | Low -- °F
--% Chance of Precip.
Yesterday
High -- | Low -- °F
Precip. -- in
7:45 AM 5:00 PM
Waning Crescent, 2% visible
Pressure 30.05 in
Visibility 10.0 miles
Clouds Scattered Clouds 4100 ft
Mostly Cloudy 4800 ft
Overcast 6500 ft
Windchill 28 °F
Dew Point 25 °F
Humidity 88%
Rainfall 0.01 in
Snow Depth Not available.
UV 0 out of 12
Pollen .10 out of 12
Air Quality Not available.
Flu Activity Not available.
METAR K36U 202255Z AUTO 00000KT 10SM SCT041 BKN048 OVC065 02/00 A3005 RMK AO2

More Conditions Fewer Conditions

Pressure 30.05 in
Visibility 10.0 miles
Clouds Scattered Clouds 4100 ft
Mostly Cloudy 4800 ft
Overcast 6500 ft
Windchill 28 °F
Dew Point 25 °F
Humidity 88%
Rainfall 0.01 in
Snow Depth Not available.
UV 0 out of 12
Pollen .10 out of 12
Air Quality Not available.
Flu Activity Not available.
METAR K36U 202255Z AUTO 00000KT 10SM SCT041 BKN048 OVC065 02/00 A3005 RMK AO2

More Conditions Fewer Conditions

10-Day Weather Forecast

Almanac

Astronomy

Dec. 20, 2014 Rise Set
Actual Time
Civil Twilight
Nautical Twilight
Astronomical Twilight
Moon
Length of Visible Light
Length of Day
Tomorrow will be .
, % of the Moon is Illuminated

Today's Extremes

State Highs State Lows

Community

WunderPhotos

Upload Photos

1,779,311 photos uploaded!

WunderBlogs® & News

Nearby

Air Quality

  Air Quality AQ Index Pollutant
Not available.

Snow Depth

Station Depth Elevation

Earthquake Activity

City Distance Mag. Time & Date
Minimum magnitude displayed is 2.5.

Coastal Water Temperatures

Place Temperature

Nearby Weather Stations